createdAt,value
2023-05-15T00:01:28.563Z,13.10
2023-05-15T00:03:56.552Z,13.20
2023-05-15T00:06:24.606Z,13.20
2023-05-15T00:08:52.518Z,13.20
2023-05-15T00:11:21.365Z,13.20
2023-05-15T00:13:49.352Z,13.20
2023-05-15T00:16:19.073Z,13.20
2023-05-15T00:18:47.147Z,13.20
2023-05-15T00:21:15.193Z,13.20
2023-05-15T00:23:43.249Z,13.20
2023-05-15T00:26:11.254Z,13.20
2023-05-15T00:28:39.189Z,13.20
2023-05-15T00:31:08.671Z,13.20
2023-05-15T00:33:38.081Z,13.20
2023-05-15T00:36:06.773Z,13.20
2023-05-15T00:38:35.074Z,13.20
2023-05-15T00:41:03.494Z,13.20
2023-05-15T00:43:32.016Z,13.20
2023-05-15T00:46:00.921Z,13.20
2023-05-15T00:48:30.572Z,13.20
2023-05-15T00:51:01.015Z,13.20
2023-05-15T00:53:29.229Z,13.20
2023-05-15T00:55:59.546Z,13.20
2023-05-15T00:58:28.765Z,13.20
2023-05-15T01:00:57.101Z,13.10
2023-05-15T01:03:25.260Z,13.10
2023-05-15T01:05:53.417Z,13.10
2023-05-15T01:08:28.028Z,13.10
2023-05-15T01:10:57.659Z,13.10
2023-05-15T01:13:25.992Z,13.10
2023-05-15T01:15:55.773Z,13.10
2023-05-15T01:18:23.730Z,13.10
2023-05-15T01:21:08.264Z,13.10
2023-05-15T01:23:53.638Z,13.10
2023-05-15T01:26:50.081Z,13.10
2023-05-15T01:29:25.586Z,13.10
2023-05-15T01:31:58.523Z,13.10
2023-05-15T01:34:44.075Z,13.00
2023-05-15T01:37:14.400Z,13.00
2023-05-15T01:39:46.032Z,13.00
2023-05-15T01:42:17.899Z,13.00
2023-05-15T01:44:53.581Z,13.00
2023-05-15T01:47:27.410Z,13.00
2023-05-15T01:49:59.589Z,13.00
2023-05-15T01:52:33.702Z,12.90
2023-05-15T01:55:03.778Z,12.90
2023-05-15T01:57:32.818Z,12.80
2023-05-15T02:00:03.932Z,12.80
2023-05-15T02:02:32.736Z,12.80
2023-05-15T02:05:01.949Z,12.80
2023-05-15T02:07:32.364Z,12.70
2023-05-15T02:10:01.048Z,12.70
2023-05-15T02:12:29.810Z,12.70
2023-05-15T02:15:02.811Z,12.70
2023-05-15T02:17:31.071Z,12.70
2023-05-15T02:19:59.215Z,12.70
2023-05-15T02:22:27.685Z,12.70
2023-05-15T02:24:55.849Z,12.70
2023-05-15T02:27:27.803Z,12.70
2023-05-15T02:30:17.636Z,12.60
2023-05-15T02:32:52.079Z,12.60
2023-05-15T02:35:28.018Z,12.50
2023-05-15T02:38:01.721Z,12.50
2023-05-15T02:40:31.309Z,12.50
2023-05-15T02:43:00.139Z,12.50
2023-05-15T02:45:30.292Z,12.50
2023-05-15T02:47:58.738Z,12.50
2023-05-15T02:50:27.206Z,12.50
2023-05-15T02:53:03.469Z,12.50
2023-05-15T02:55:31.579Z,12.50
2023-05-15T02:58:00.650Z,12.50
2023-05-15T03:00:30.073Z,12.50
2023-05-15T03:02:58.372Z,12.50
2023-05-15T03:05:26.900Z,12.50
2023-05-15T03:07:55.908Z,12.50
2023-05-15T03:10:24.321Z,12.50
2023-05-15T03:12:52.457Z,12.50
2023-05-15T03:15:21.363Z,12.50
2023-05-15T03:17:50.973Z,12.50
2023-05-15T03:20:19.324Z,12.50
2023-05-15T03:22:47.493Z,12.50
2023-05-15T03:25:15.619Z,12.50
2023-05-15T03:27:43.677Z,12.50
2023-05-15T03:30:12.430Z,12.40
2023-05-15T03:32:40.838Z,12.40
2023-05-15T03:35:11.339Z,12.40
2023-05-15T03:37:39.367Z,12.40
2023-05-15T03:40:09.049Z,12.40
2023-05-15T03:42:36.986Z,12.40
2023-05-15T03:45:05.543Z,12.30
2023-05-15T03:47:33.650Z,12.20
2023-05-15T03:50:01.703Z,12.20
2023-05-15T03:52:32.126Z,12.10
2023-05-15T03:55:00.417Z,12.10
2023-05-15T03:57:28.734Z,12.10
2023-05-15T03:59:56.679Z,12.10
2023-05-15T04:02:24.773Z,12.10
2023-05-15T04:04:53.298Z,12.00
2023-05-15T04:07:21.353Z,12.00
2023-05-15T04:09:50.798Z,12.00
2023-05-15T04:12:18.754Z,12.00
2023-05-15T04:14:46.769Z,12.00
2023-05-15T04:17:14.763Z,12.00
2023-05-15T04:19:43.213Z,12.00
2023-05-15T04:22:11.176Z,12.00
2023-05-15T04:24:39.209Z,11.90
2023-05-15T04:27:09.054Z,11.90
2023-05-15T04:29:37.001Z,11.80
2023-05-15T04:32:05.409Z,11.80
2023-05-15T04:34:33.682Z,11.80
2023-05-15T04:37:01.756Z,11.70
2023-05-15T04:39:29.672Z,11.80
2023-05-15T04:41:57.610Z,11.70
2023-05-15T04:44:26.994Z,11.70
2023-05-15T04:46:54.981Z,11.70
2023-05-15T04:49:22.953Z,11.80
2023-05-15T04:51:50.870Z,11.80
2023-05-15T04:54:18.829Z,11.80
2023-05-15T04:56:47.267Z,11.80
2023-05-15T04:59:15.909Z,11.80
2023-05-15T05:01:46.087Z,11.90
2023-05-15T05:04:14.693Z,11.90
2023-05-15T05:06:42.748Z,12.00
2023-05-15T05:09:10.889Z,12.00
2023-05-15T05:11:43.481Z,11.90
2023-05-15T05:14:11.453Z,12.00
2023-05-15T05:16:39.511Z,12.00
2023-05-15T05:19:09.127Z,12.10
2023-05-15T05:21:37.216Z,12.10
2023-05-15T05:24:05.276Z,12.20
2023-05-15T05:26:33.205Z,12.20
2023-05-15T05:29:01.213Z,12.40
2023-05-15T05:31:29.171Z,12.40
2023-05-15T05:33:57.146Z,12.50
2023-05-15T05:36:26.542Z,12.50
2023-05-15T05:38:54.514Z,12.50
2023-05-15T05:41:22.654Z,12.40
2023-05-15T05:43:50.632Z,12.40
2023-05-15T05:46:19.304Z,12.40
2023-05-15T05:48:47.285Z,12.50
2023-05-15T05:51:15.662Z,12.60
2023-05-15T05:53:45.039Z,12.70
2023-05-15T05:56:13.086Z,12.80
2023-05-15T05:58:41.097Z,12.80
2023-05-15T06:01:09.113Z,12.80
2023-05-15T06:03:37.678Z,12.80
2023-05-15T06:06:06.489Z,12.90
2023-05-15T06:08:34.466Z,13.00
2023-05-15T06:11:03.866Z,13.00
2023-05-15T06:13:31.926Z,12.90
2023-05-15T06:15:59.847Z,12.80
2023-05-15T06:18:27.857Z,12.90
2023-05-15T06:20:55.924Z,12.80
2023-05-15T06:23:24.461Z,12.80
2023-05-15T06:25:52.564Z,12.70
2023-05-15T06:28:22.115Z,12.70
2023-05-15T06:30:50.094Z,12.60
2023-05-15T06:33:18.059Z,12.70
2023-05-15T06:35:46.202Z,12.70
2023-05-15T06:38:14.273Z,12.60
2023-05-15T06:40:42.195Z,12.50
2023-05-15T06:43:10.157Z,12.50
2023-05-15T06:45:42.298Z,12.40
2023-05-15T06:48:10.363Z,12.40
2023-05-15T06:50:38.462Z,12.40
2023-05-15T06:53:06.486Z,12.30
2023-05-15T06:55:36.596Z,12.30
2023-05-15T06:58:04.583Z,12.40
2023-05-15T07:00:32.828Z,12.40
2023-05-15T07:03:02.238Z,12.40
2023-05-15T07:05:30.767Z,12.40
2023-05-15T07:07:58.725Z,12.40
2023-05-15T07:10:26.922Z,12.40
2023-05-15T07:12:55.265Z,12.50
2023-05-15T07:15:23.310Z,12.60
2023-05-15T07:17:56.521Z,12.70
2023-05-15T07:20:30.285Z,12.80
2023-05-15T07:22:59.374Z,13.00
2023-05-15T07:25:27.735Z,13.00
2023-05-15T07:27:55.972Z,13.10
2023-05-15T07:30:24.512Z,13.00
2023-05-15T07:32:52.799Z,12.80
2023-05-15T07:35:22.268Z,12.70
2023-05-15T07:37:51.743Z,12.60
2023-05-15T07:40:20.189Z,12.80
2023-05-15T07:42:48.167Z,12.90
2023-05-15T07:45:16.841Z,12.90
2023-05-15T07:47:47.018Z,13.10
2023-05-15T07:50:17.739Z,13.10
2023-05-15T07:52:45.814Z,13.10
2023-05-15T07:55:15.270Z,13.10
2023-05-15T07:57:44.166Z,13.10
2023-05-15T08:00:13.608Z,13.00
2023-05-15T08:02:46.525Z,12.80
2023-05-15T08:05:14.961Z,12.80
2023-05-15T08:07:45.405Z,12.90
2023-05-15T08:10:15.632Z,13.00
2023-05-15T08:12:47.306Z,13.10
2023-05-15T08:15:16.574Z,13.30
2023-05-15T08:17:46.233Z,13.40
2023-05-15T08:20:15.268Z,13.50
2023-05-15T08:22:43.408Z,13.50
2023-05-15T08:25:11.592Z,13.50
2023-05-15T08:27:41.753Z,13.50
2023-05-15T08:30:14.105Z,13.50
2023-05-15T08:32:43.038Z,13.50
2023-05-15T08:35:12.026Z,13.50
2023-05-15T08:37:39.974Z,13.60
2023-05-15T08:40:10.741Z,13.50
2023-05-15T08:42:46.091Z,13.50
2023-05-15T08:45:14.915Z,13.30
2023-05-15T08:47:44.154Z,13.20
2023-05-15T08:50:14.598Z,13.30
2023-05-15T08:52:43.822Z,13.30
2023-05-15T08:55:12.547Z,13.30
2023-05-15T08:57:42.200Z,13.40
2023-05-15T09:00:14.999Z,13.40
2023-05-15T09:02:44.079Z,13.50
2023-05-15T09:05:12.329Z,13.50
2023-05-15T09:07:41.750Z,13.50
2023-05-15T09:10:11.439Z,13.60
2023-05-15T09:12:44.792Z,13.60
2023-05-15T09:15:16.020Z,13.70
2023-05-15T09:17:44.577Z,13.80
2023-05-15T09:20:27.887Z,13.70
2023-05-15T09:22:56.004Z,13.60
2023-05-15T09:25:38.731Z,13.60
2023-05-15T09:28:10.623Z,13.60
2023-05-15T09:30:39.576Z,13.60
2023-05-15T09:33:08.336Z,13.70
2023-05-15T09:35:38.526Z,13.70
2023-05-15T09:38:12.509Z,13.80
2023-05-15T09:40:42.087Z,13.90
2023-05-15T09:43:13.032Z,14.10
2023-05-15T09:45:41.851Z,14.10
2023-05-15T09:48:11.921Z,14.10
2023-05-15T09:50:43.167Z,14.10
2023-05-15T09:53:14.014Z,14.00
2023-05-15T09:55:43.669Z,14.00
2023-05-15T09:58:14.879Z,14.00
2023-05-15T10:00:47.530Z,14.10
2023-05-15T10:03:18.239Z,14.20
2023-05-15T10:05:46.671Z,14.20
2023-05-15T10:08:16.038Z,14.20
2023-05-15T10:10:47.020Z,14.20
2023-05-15T10:13:16.658Z,14.20
2023-05-15T10:15:50.031Z,14.10
2023-05-15T10:18:20.252Z,14.00
2023-05-15T10:20:48.695Z,13.90
2023-05-15T10:23:18.936Z,13.80
2023-05-15T10:25:56.119Z,13.80
2023-05-15T10:28:32.203Z,13.70
2023-05-15T10:31:02.625Z,13.60
2023-05-15T10:33:31.254Z,13.60
2023-05-15T10:36:02.129Z,13.60
2023-05-15T10:38:31.677Z,13.60
2023-05-15T10:41:15.669Z,13.60
2023-05-15T10:43:47.809Z,13.60
2023-05-15T10:46:17.266Z,13.60
2023-05-15T10:48:46.541Z,13.60
2023-05-15T10:51:18.700Z,13.60
2023-05-15T10:53:47.212Z,13.60
2023-05-15T10:56:16.748Z,13.60
2023-05-15T10:58:50.822Z,13.60
2023-05-15T11:01:32.952Z,13.70
2023-05-15T11:04:09.606Z,13.60
2023-05-15T11:06:38.415Z,13.70
2023-05-15T11:09:36.027Z,13.70
2023-05-15T11:12:05.752Z,13.70
2023-05-15T11:14:37.652Z,13.80
2023-05-15T11:17:08.135Z,13.70
2023-05-15T11:19:55.434Z,13.80
2023-05-15T11:22:28.578Z,13.70
2023-05-15T11:25:00.694Z,13.60
2023-05-15T11:27:32.131Z,13.60
2023-05-15T11:30:17.945Z,13.60
2023-05-15T11:32:55.813Z,13.60
2023-05-15T11:35:26.084Z,13.60
2023-05-15T11:37:57.095Z,13.60
2023-05-15T11:40:28.519Z,13.60
2023-05-15T11:43:05.672Z,13.60
2023-05-15T11:45:36.817Z,13.60
2023-05-15T11:48:07.028Z,13.70
2023-05-15T11:50:36.311Z,13.70
2023-05-15T11:53:05.734Z,13.70
2023-05-15T11:55:35.718Z,13.70
2023-05-15T11:58:04.306Z,13.80
2023-05-15T12:00:34.068Z,13.80
2023-05-15T12:03:03.845Z,13.80
2023-05-15T12:05:32.047Z,13.90
2023-05-15T12:08:00.129Z,13.90
2023-05-15T12:10:28.481Z,13.90
2023-05-15T12:12:56.837Z,14.00
2023-05-15T12:15:24.944Z,14.00
2023-05-15T12:17:54.439Z,14.10
2023-05-15T12:20:22.972Z,14.10
2023-05-15T12:22:51.180Z,14.20
2023-05-15T12:25:19.620Z,14.20
2023-05-15T12:27:48.098Z,14.30
2023-05-15T12:30:16.720Z,14.40
2023-05-15T12:32:45.324Z,14.40
2023-05-15T12:35:14.928Z,14.50
2023-05-15T12:37:43.549Z,14.50
2023-05-15T12:40:12.623Z,14.50
2023-05-15T12:42:42.185Z,14.60
2023-05-15T12:45:20.417Z,14.60
2023-05-15T12:47:50.749Z,14.60
2023-05-15T12:50:22.959Z,14.70
2023-05-15T12:52:55.425Z,14.70
2023-05-15T12:55:28.115Z,14.70
2023-05-15T12:57:58.755Z,14.80
2023-05-15T13:00:27.351Z,14.80
2023-05-15T13:02:57.551Z,14.80
2023-05-15T13:05:28.218Z,14.80
2023-05-15T13:07:56.659Z,14.80
2023-05-15T13:10:26.447Z,14.80
2023-05-15T13:12:56.789Z,14.70
2023-05-15T13:15:30.115Z,14.70
2023-05-15T13:18:02.425Z,14.60
2023-05-15T13:20:34.658Z,14.60
2023-05-15T13:23:03.268Z,14.70
2023-05-15T13:25:32.433Z,14.70
2023-05-15T13:28:02.169Z,14.70
2023-05-15T13:30:30.754Z,14.80
2023-05-15T13:32:59.150Z,14.80
2023-05-15T13:35:27.664Z,14.90
2023-05-15T13:37:57.683Z,14.90
2023-05-15T13:40:26.045Z,15.00
2023-05-15T13:42:54.606Z,15.20
2023-05-15T13:45:22.689Z,15.30
2023-05-15T13:47:51.853Z,15.30
2023-05-15T13:50:19.877Z,15.30
2023-05-15T13:52:48.301Z,15.20
2023-05-15T13:55:18.346Z,15.00
2023-05-15T13:57:47.307Z,14.90
2023-05-15T14:00:16.292Z,14.80
2023-05-15T14:02:45.554Z,14.70
2023-05-15T14:05:15.901Z,14.60
2023-05-15T14:07:43.838Z,14.50
2023-05-15T14:10:15.060Z,14.40
2023-05-15T14:12:44.456Z,14.40
2023-05-15T14:15:13.367Z,14.30
2023-05-15T14:17:41.754Z,14.20
2023-05-15T14:20:13.326Z,14.10
2023-05-15T14:22:42.064Z,14.00
2023-05-15T14:25:11.313Z,14.00
2023-05-15T14:27:39.566Z,13.90
2023-05-15T14:30:10.487Z,13.90
2023-05-15T14:32:38.539Z,13.90
2023-05-15T14:35:07.335Z,13.90
2023-05-15T14:37:38.259Z,13.90
2023-05-15T14:40:08.438Z,14.00
2023-05-15T14:42:37.330Z,14.00
2023-05-15T14:45:06.098Z,13.90
2023-05-15T14:47:37.574Z,13.90
2023-05-15T14:50:07.626Z,13.80
2023-05-15T14:52:36.509Z,13.80
2023-05-15T14:55:09.707Z,13.70
2023-05-15T14:57:40.246Z,13.70
2023-05-15T15:00:10.064Z,13.70
2023-05-15T15:02:42.072Z,13.70
2023-05-15T15:05:11.376Z,13.70
2023-05-15T15:08:01.834Z,13.70
2023-05-15T15:10:31.228Z,13.70
2023-05-15T15:13:00.532Z,13.70
2023-05-15T15:15:31.242Z,13.70
2023-05-15T15:18:01.545Z,13.60
2023-05-15T15:20:30.335Z,13.60
2023-05-15T15:22:58.331Z,13.60
2023-05-15T15:25:26.672Z,13.60
2023-05-15T15:27:54.747Z,13.60
2023-05-15T15:30:23.458Z,13.60
2023-05-15T15:32:51.681Z,13.60
2023-05-15T15:35:21.942Z,13.50
2023-05-15T15:37:53.229Z,13.50
2023-05-15T15:40:23.729Z,13.50
2023-05-15T15:42:52.075Z,13.50
2023-05-15T15:45:20.177Z,13.50
2023-05-15T15:47:48.338Z,13.50
2023-05-15T15:50:16.580Z,13.50
2023-05-15T15:52:46.743Z,13.40
2023-05-15T15:55:14.834Z,13.40
2023-05-15T15:57:43.036Z,13.50
2023-05-15T16:00:13.670Z,13.50
2023-05-15T16:02:42.152Z,13.50
2023-05-15T16:05:12.990Z,13.50
2023-05-15T16:07:42.826Z,13.50
2023-05-15T16:10:13.523Z,13.50
2023-05-15T16:12:43.117Z,13.50
2023-05-15T16:17:42.961Z,13.40
2023-05-15T16:20:11.457Z,13.40
2023-05-15T16:22:41.657Z,13.40
2023-05-15T16:25:10.921Z,13.40
2023-05-15T16:27:40.536Z,13.40
2023-05-15T16:30:11.512Z,13.50
2023-05-15T16:32:40.447Z,13.50
2023-05-15T16:35:09.584Z,13.50
2023-05-15T16:37:37.595Z,13.50
2023-05-15T16:40:08.510Z,13.50
2023-05-15T16:42:38.052Z,13.40
2023-05-15T16:45:09.232Z,13.40
2023-05-15T16:47:40.937Z,13.40
2023-05-15T16:50:09.926Z,13.40
2023-05-15T16:52:39.292Z,13.40
2023-05-15T16:55:08.233Z,13.30
2023-05-15T16:57:36.263Z,13.30
2023-05-15T17:00:04.978Z,13.30
2023-05-15T17:02:34.452Z,13.30
2023-05-15T17:05:04.268Z,13.20
2023-05-15T17:07:33.635Z,13.20
2023-05-15T17:10:01.734Z,13.20
2023-05-15T17:12:29.717Z,13.10
2023-05-15T17:14:57.782Z,13.10
2023-05-15T17:17:26.394Z,13.00
2023-05-15T17:19:56.313Z,13.00
2023-05-15T17:22:25.091Z,13.00
2023-05-15T17:24:53.096Z,13.00
2023-05-15T17:27:21.276Z,13.00
2023-05-15T17:29:49.788Z,12.90
2023-05-15T17:32:18.566Z,12.80
2023-05-15T17:34:47.510Z,12.70
2023-05-15T17:37:16.917Z,12.70
2023-05-15T17:39:44.890Z,12.60
2023-05-15T17:42:12.944Z,12.60
2023-05-15T17:44:40.901Z,12.50
2023-05-15T17:47:10.105Z,12.50
2023-05-15T17:49:39.531Z,12.50
2023-05-15T17:52:07.941Z,12.50
2023-05-15T17:54:37.741Z,12.50
2023-05-15T17:57:06.463Z,12.50
2023-05-15T17:59:34.448Z,12.50
2023-05-15T18:02:02.820Z,12.40
2023-05-15T18:04:30.883Z,12.40
2023-05-15T18:06:58.868Z,12.40
2023-05-15T18:09:27.178Z,12.30
2023-05-15T18:11:57.129Z,12.40
2023-05-15T18:14:25.208Z,12.40
2023-05-15T18:16:54.269Z,12.40
2023-05-15T18:19:22.808Z,12.50
2023-05-15T18:21:52.731Z,12.50
2023-05-15T18:24:21.995Z,12.50
2023-05-15T18:26:49.928Z,12.50
2023-05-15T18:29:19.284Z,12.50
2023-05-15T18:31:47.304Z,12.50
2023-05-15T18:34:15.513Z,12.50
2023-05-15T18:36:43.758Z,12.50
2023-05-15T18:39:15.602Z,12.50
2023-05-15T18:41:43.787Z,12.50
2023-05-15T18:44:11.885Z,12.40
2023-05-15T18:46:41.246Z,12.40
2023-05-15T18:49:09.383Z,12.30
2023-05-15T18:51:40.420Z,12.10
2023-05-15T18:54:08.534Z,11.90
2023-05-15T18:56:37.287Z,11.80
2023-05-15T18:59:05.714Z,11.60
2023-05-15T19:01:34.121Z,11.50
2023-05-15T19:04:06.514Z,11.40
2023-05-15T19:06:34.801Z,11.40
2023-05-15T19:09:03.292Z,11.30
2023-05-15T19:11:32.868Z,11.20
2023-05-15T19:14:01.630Z,11.20
2023-05-15T19:16:30.962Z,11.10
2023-05-15T19:18:59.619Z,11.00
2023-05-15T19:21:29.669Z,10.90
2023-05-15T19:23:57.792Z,10.90
2023-05-15T19:26:32.072Z,10.90
2023-05-15T19:29:00.489Z,11.00
2023-05-15T19:31:32.037Z,10.90
2023-05-15T19:34:00.795Z,11.00
2023-05-15T19:36:30.202Z,10.90
2023-05-15T19:38:58.194Z,10.90
2023-05-15T19:41:26.323Z,10.90
2023-05-15T19:43:54.842Z,10.90
2023-05-15T19:46:23.007Z,11.00
2023-05-15T19:48:50.989Z,10.90
2023-05-15T19:51:21.509Z,10.90
2023-05-15T19:53:52.717Z,10.80
2023-05-15T19:56:22.777Z,10.90
2023-05-15T19:58:50.811Z,10.80
2023-05-15T20:01:18.969Z,10.70
2023-05-15T20:03:47.573Z,10.50
2023-05-15T20:06:15.570Z,10.40
2023-05-15T20:08:45.057Z,10.30
2023-05-15T20:11:15.612Z,10.10
2023-05-15T20:13:43.664Z,10.00
2023-05-15T20:16:12.789Z,9.90
2023-05-15T20:18:42.013Z,9.90
2023-05-15T20:21:10.043Z,9.90
2023-05-15T20:23:37.995Z,10.10
2023-05-15T20:26:05.976Z,10.20
2023-05-15T20:28:35.305Z,10.40
2023-05-15T20:31:03.326Z,10.50
2023-05-15T20:33:31.384Z,10.60
2023-05-15T20:36:00.216Z,10.70
2023-05-15T20:38:28.383Z,10.80
2023-05-15T20:40:56.749Z,10.80
2023-05-15T20:43:24.961Z,10.80
2023-05-15T20:45:54.458Z,10.90
2023-05-15T20:48:22.586Z,10.90
2023-05-15T20:50:53.008Z,10.90
2023-05-15T20:53:22.019Z,11.00
2023-05-15T20:55:50.022Z,11.00
2023-05-15T20:58:18.028Z,11.00
2023-05-15T21:00:45.992Z,11.00
2023-05-15T21:03:16.632Z,11.00
2023-05-15T21:05:44.732Z,11.00
2023-05-15T21:08:12.839Z,11.00
2023-05-15T21:10:43.208Z,11.00
2023-05-15T21:13:15.499Z,11.00
2023-05-15T21:15:44.023Z,11.00
2023-05-15T21:18:12.699Z,11.00
2023-05-15T21:20:42.431Z,11.00
2023-05-15T21:23:10.497Z,11.00
2023-05-15T21:25:38.704Z,10.90
2023-05-15T21:28:07.660Z,11.00
2023-05-15T21:30:35.730Z,11.00
2023-05-15T21:33:03.842Z,11.00
2023-05-15T21:35:31.939Z,11.00
2023-05-15T21:38:01.559Z,11.00
2023-05-15T21:40:35.182Z,11.00
2023-05-15T21:43:03.186Z,11.00
2023-05-15T21:45:31.302Z,11.00
2023-05-15T21:47:59.371Z,11.00
2023-05-15T21:50:27.661Z,11.00
2023-05-15T21:52:55.921Z,11.00
2023-05-15T21:55:25.268Z,10.90
2023-05-15T21:57:53.569Z,10.90
2023-05-15T22:00:21.953Z,10.90
2023-05-15T22:02:50.058Z,10.90
2023-05-15T22:05:19.153Z,10.90
2023-05-15T22:07:47.859Z,10.90
2023-05-15T22:10:16.652Z,10.80
2023-05-15T22:12:46.955Z,10.80
2023-05-15T22:15:16.740Z,10.80
2023-05-15T22:17:45.180Z,10.80
2023-05-15T22:20:14.106Z,10.80
2023-05-15T22:22:43.981Z,10.80
2023-05-15T22:25:12.090Z,10.80
2023-05-15T22:27:40.398Z,10.70
2023-05-15T22:30:10.749Z,10.70
2023-05-15T22:32:38.802Z,10.70
2023-05-15T22:35:08.279Z,10.70
2023-05-15T22:37:36.688Z,10.70
2023-05-15T22:40:07.575Z,10.70
2023-05-15T22:42:35.957Z,10.70
2023-05-15T22:45:05.999Z,10.70
2023-05-15T22:47:35.445Z,10.60
2023-05-15T22:50:03.477Z,10.70
2023-05-15T22:52:32.094Z,10.70
2023-05-15T22:55:00.125Z,10.70
2023-05-15T22:57:29.285Z,10.70
2023-05-15T22:59:57.275Z,10.70
2023-05-15T23:02:25.370Z,10.70
2023-05-15T23:04:54.747Z,10.70
2023-05-15T23:07:22.761Z,10.70
2023-05-15T23:09:51.568Z,10.60
2023-05-15T23:12:19.626Z,10.60
2023-05-15T23:14:47.595Z,10.60
2023-05-15T23:17:16.021Z,10.60
2023-05-15T23:19:46.664Z,10.60
2023-05-15T23:22:16.026Z,10.60
2023-05-15T23:24:44.044Z,10.70
2023-05-15T23:27:12.004Z,10.60
2023-05-15T23:29:40.030Z,10.50
2023-05-15T23:32:08.928Z,10.50
2023-05-15T23:34:36.931Z,10.50
2023-05-15T23:37:05.218Z,10.50
2023-05-15T23:39:36.145Z,10.40
2023-05-15T23:42:04.201Z,10.40
2023-05-15T23:44:32.538Z,10.40
2023-05-15T23:47:00.539Z,10.40
2023-05-15T23:49:28.699Z,10.40
2023-05-15T23:51:56.698Z,10.40
2023-05-15T23:54:24.721Z,10.30
2023-05-15T23:57:02.271Z,10.30
2023-05-15T23:59:30.994Z,10.30
